This is the latest recevied weather packets stored in our database for station/object KQ4OSL. If no packets are shown the sender has not sent any weather packets the latest 10 day(s).
| Time | Temp. | Humidity | Pressure | Rain* | Wind** | Luminosity | Snow |
|---|---|---|---|---|---|---|---|
| 1787462032 | 23.33° C | 94% | 1017.5 hPa | 0 mm | - | 0 W/m² | - |
| 1787461727 | 23.33° C | 94% | 1017.3 hPa | 0 mm | - | 0 W/m² | - |
| 1787461427 | 22.78° C | 95% | 1017.2 hPa | 0 mm | - | 0 W/m² | - |
| 1787461122 | 22.22° C | 99% | 1017.3 hPa | 0 mm | - | 0 W/m² | - |
| 1787460818 | 22.22° C | 99% | 1017.4 hPa | 0 mm | - | 0 W/m² | - |
| 1787460513 | 22.78° C | 98% | 1017.6 hPa | 0 mm | - | 0 W/m² | - |
| 1787460210 | 22.78° C | 98% | 1017.7 hPa | 0 mm | - | 0 W/m² | - |
| 1787459907 | 22.22° C | 98% | 1017.7 hPa | 0 mm | - | 0 W/m² | - |
| 1787459604 | 22.22° C | 99% | 1017.9 hPa | 0 mm | - | 0 W/m² | - |
| 1787459301 | 22.22° C | 99% | 1017.8 hPa | 0 mm | - | 0 W/m² | - |
| 1787458997 | 22.22° C | 98% | 1017.9 hPa | 0 mm | - | 0 W/m² | - |
| 1787458696 | 22.22° C | 98% | 1017.6 hPa | 0 mm | - | 0 W/m² | - |
| 1787458396 | 22.22° C | 98% | 1018.1 hPa | 0 mm | - | 0 W/m² | - |
| 1787458091 | 22.78° C | 97% | 1018.2 hPa | 0 mm | - | 0 W/m² | - |
| 1787457788 | 22.78° C | 96% | 1018.3 hPa | 0 mm | - | 0 W/m² | - |
| 1787457489 | 23.33° C | 95% | 1018.2 hPa | 0 mm | - | 0 W/m² | - |
| 1787457189 | 23.89° C | 93% | 1018.3 hPa | 0 mm | - | 0 W/m² | - |
| 1787456884 | 23.33° C | 94% | 1018.1 hPa | 0 mm | - | 0 W/m² | - |
| 1787456579 | 22.22° C | 97% | 1018.1 hPa | 0 mm | - | 0 W/m² | - |
| 1787456276 | 22.22° C | 99% | 1018.2 hPa | 0 mm | - | 0 W/m² | - |
| 1787455971 | 22.22° C | 99% | 1018 hPa | 0 mm | - | 0 W/m² | - |
| 1787455666 | 22.22° C | 98% | 1018.1 hPa | 0 mm | - | 0 W/m² | - |
| 1787455361 | 22.22° C | 97% | 1018 hPa | 0 mm | - | 0 W/m² | - |
| 1787455056 | 22.22° C | 97% | 1018 hPa | 0 mm | - | 0 W/m² | - |
| 1787454752 | 22.22° C | 98% | 1018 hPa | 0 mm | - | 0 W/m² | - |
* Rain latest hour (hover to see other rain measurements)
** Current wind speed in m/s (hover to see current wind gust speed)